KECG

Elizabeth City CG Air Station / Rgnl Airport

Elizabeth City, North Carolina, USA
METAR KECG 211554Z 29017G25KT 10SM CLR M04/M18 A3035 RMK AO2 PK WND 31026/1502 SLP278 T10391183
Observed Flight Rules
Jan-21 @ 15:54 UTC (35 minutes ago) Visual Flight Rules
Wind Visibility Clouds
290° at 17 knots
 Gusting to 25 knots
10 miles
  • Clear skies
Temperatures Readings
Current -4°C / 25°F
Dewpoint -18°C / -0°F
Humidity 33%
Altimeter 30.35" Hg
Pressure 1027.8 hPa
Elevation 11
METAR KECG 211554Z 29017G25KT 10SM CLR M04/M18 A3035 RMK AO2 PK WND 31026/1502 SLP278 T10391183
Observed Flight Rules
Jan-21 @ 15:54 UTC
(35 minutes ago)
VFR
Wind Visibility
290° at 17 knots
 Gusting to 25 knots
10 miles
Clouds
  • Clear skies
Temperature Dewpoint
-4°C / 25°F -18°C / -0°F
Humidity Altimeter Pressure
33% 30.35" Hg 1027.8 hPa